Agudos do Sul, Brazil
Current Conditions -  °F | °C
As of 9:00 PM on Friday 24 Oct 2014 (Local Time) from SBCT Reporting Station
Haze Haze  
Wind Chill: 63°   Ceiling: 300
Heat Index: 63°   Visibility: 2.5mi
Dew Point: 61°   Wind: 3mph
Humidity: 94%   Direction: 120°ESE
Pressure: 30.03"   Gusts: NA
Location:  25.99°S, 49.34°W
Report Text: SBCT 242300Z 12003KT 4000 BR FEW001 SCT002 OVC003 17/16 Q1017
Loading
Personal Weather Stations






























Interactive Weather Map
Tropical Storm Tracking
New forecast layout! Learn more

10-Day Weather Forecast

Advertisements
Track Severe Weather on mobile